Terminal Aerodrome Forecast
Issued by NWS

Current Version | Previous Version | Text Only | Print | Product List | Glossary On
Versions: 1 2 3 4 5 6 7 8 9 10 11 12 13
000
FTUS42 KMLB 290540
TAFSUA
TAF
KSUA 290540Z 2906/3006 VRB03KT P6SM FEW020 BKN250
     FM291600 10010KT P6SM VCTS SCT035CB BKN250
     FM292200 11008KT P6SM SCT035 SCT120 BKN250
     FM300400 12008KT P6SM VCSH SCT035 BKN250=

USA.gov is the U.S. government's official web portal to all federal, state and local government web resources and services.